Latest Weather Observations for Maria Island

IDT60801

Issued at 12:01 pm EST Tuesday 23 April 2019 (issued every 10 minutes, with the page automatically refreshed every 10 minutes)

About weather observations | Map of weather stations | Latest weather observations for TAS | Other Formats
Station Details ID: 092124 Name: MARIA ISLAND (POINT LESUEUR) Lat: -42.66 Lon: 148.02 Height: 28.0 m
Data from the previous 72 hours. | See also: Recent months at Maria Island
Date/Time
EST
Temp
°C
App
Temp
°C
Dew
Point
°C
Rel
Hum
%
Delta-T
°C
Wind Press
QNH
hPa
Press
MSL
hPa
Rain since
9am
mm
Dir  Spd
km/h
Gust
km/h
Spd
kts
Gust
kts
23/12:00pm 16.7 15.1 8.1 57 4.3 N 6 7 3 4 1024.8 1024.8 0.0
23/11:30am 16.0 14.3 9.7 66 3.3 N 9 11 5 6 1025.4 1025.4 0.0
23/11:00am 15.2 13.2 8.7 65 3.3 N 9 11 5 6 1025.6 1025.6 0.0
23/10:30am 15.0 13.3 9.8 71 2.7 N 9 11 5 6 1025.8 1025.8 0.0
23/10:00am 14.0 11.8 9.2 73 2.4 N 11 13 6 7 1025.9 1025.9 0.0
23/09:30am 13.8 13.0 9.5 75 2.2 NW 4 9 2 5 1026.1 1026.1 0.0
23/09:00am 13.2 13.0 9.1 76 2.1 CALM 0 0 0 0 1026.2 1026.2 0.0
23/08:30am 12.7 12.2 9.3 80 1.7 NW 2 4 1 2 1026.4 1026.4 0.0
23/08:00am 11.6 10.2 8.8 83 1.4 WNW 6 7 3 4 1026.4 1026.4 0.0
23/07:30am 10.9 9.9 8.8 87 1.0 NE 4 6 2 3 1026.2 1026.2 0.0
23/07:00am 10.7 8.7 8.5 86 1.1 N 9 13 5 7 1026.0 1026.0 0.0
23/06:30am 10.3 8.7 7.9 85 1.2 NNE 6 9 3 5 1025.9 1025.9 0.0
23/06:00am 11.2 9.5 7.7 79 1.7 NNW 6 7 3 4 1026.0 1026.0 0.0
23/05:30am 10.8 8.4 6.9 77 1.8 WNW 9 13 5 7 1025.9 1025.9 0.0
23/05:00am 10.6 8.8 7.1 79 1.7 NNW 6 9 3 5 1025.7 1025.7 0.0
23/04:30am 10.7 9.0 7.4 80 1.6 WNW 6 9 3 5 1025.6 1025.6 0.0
23/04:00am 11.0 9.1 7.7 80 1.6 NW 7 11 4 6 1025.5 1025.5 0.0
23/03:30am 11.6 8.6 7.9 78 1.8 NW 13 17 7 9 1025.5 1025.5 0.0
23/03:00am 11.1 9.1 7.2 77 1.9 NW 7 9 4 5 1025.7 1025.7 0.0
23/02:30am 11.5 9.8 7.6 77 1.9 WNW 6 7 3 4 1025.7 1025.7 0.0
23/02:00am 12.0 11.0 8.8 81 1.6 WNW 4 6 2 3 1026.0 1026.0 0.0
23/01:30am 11.1 9.3 8.0 81 1.5 W 7 9 4 5 1026.2 1026.2 0.0
23/01:00am 11.7 8.9 8.7 82 1.5 NW 13 15 7 8 1026.1 1026.1 0.0
23/12:30am 11.3 9.1 9.2 87 1.1 W 11 13 6 7 1026.5 1026.5 0.0
23/12:00am 11.0 9.4 8.6 85 1.2 W 7 7 4 4 1026.7 1026.7 0.0
 
Date/Time
EST
Temp
°C
App
Temp
°C
Dew
Point
°C
Rel
Hum
%
Delta-T
°C
Wind Press
QNH
hPa
Press
MSL
hPa
Rain since
9am
mm
Dir  Spd
km/h
Gust
km/h
Spd
kts
Gust
kts
22/11:30pm 12.0 10.6 9.7 86 1.2 W 7 9 4 5 1026.8 1026.8 0.0
22/11:00pm 12.2 11.1 9.8 85 1.2 WSW 6 6 3 3 1026.8 1026.8 0.0
22/10:30pm 12.0 10.1 9.2 83 1.4 NW 9 11 5 6 1026.6 1026.6 0.0
22/10:00pm 12.7 10.9 9.3 80 1.7 NW 9 11 5 6 1026.7 1026.7 0.0
22/09:30pm 12.7 10.9 9.3 80 1.7 NW 9 13 5 7 1026.6 1026.6 0.0
22/09:00pm 12.4 10.9 9.1 80 1.7 NW 7 9 4 5 1026.3 1026.3 0.0
22/08:30pm 13.5 12.3 9.4 76 2.1 NW 6 6 3 3 1026.0 1026.0 0.0
22/08:00pm 14.0 12.5 9.2 73 2.4 WNW 7 9 4 5 1025.8 1025.8 0.0
22/07:30pm 14.4 11.9 9.6 73 2.5 N 13 15 7 8 1025.4 1025.4 0.0
22/07:00pm 14.6 11.3 9.6 72 2.6 N 17 20 9 11 1025.1 1025.1 0.0
22/06:30pm 13.8 12.4 9.0 73 2.4 NNE 6 7 3 4 1024.8 1024.8 0.0
22/06:00pm 14.0 11.9 8.4 69 2.8 E 9 11 5 6 1024.1 1024.1 0.0
22/05:30pm 14.5 12.8 8.2 66 3.2 E 7 9 4 5 1023.5 1023.5 0.0
22/05:00pm 15.1 13.3 7.9 62 3.6 E 7 11 4 6 1023.2 1023.2 0.0
22/04:30pm 15.7 13.1 7.7 59 4.0 E 11 15 6 8 1023.0 1023.0 0.0
22/04:00pm 16.1 13.1 7.6 57 4.2 E 13 17 7 9 1022.9 1022.9 0.0
22/03:30pm 16.3 13.3 7.5 56 4.4 ESE 13 19 7 10 1022.6 1022.6 0.0
22/03:00pm 16.6 13.7 8.1 57 4.3 ESE 13 17 7 9 1022.3 1022.3 0.0
22/02:30pm 16.8 14.6 7.7 55 4.6 ENE 9 15 5 8 1022.1 1022.1 0.0
22/02:00pm 17.0 14.9 6.5 50 5.1 NNE 7 13 4 7 1022.1 1022.1 0.0
22/01:30pm 16.9 14.9 6.4 50 5.2 NE 6 7 3 4 1022.4 1022.4 0.0
22/01:00pm 16.7 14.5 7.9 56 4.4 NNE 9 13 5 7 1022.5 1022.5 0.0
22/12:30pm 16.9 15.3 7.8 55 4.6 SSE 6 9 3 5 1022.7 1022.7 0.0
22/12:00pm 16.0 14.3 7.5 57 4.2 SSE 6 9 3 5 1022.7 1022.7 0.0
22/11:30am 15.9 13.0 6.6 54 4.6 WNW 11 17 6 9 1022.7 1022.7 0.0
22/11:00am 15.7 10.3 6.2 53 4.6 WSW 24 32 13 17 1022.4 1022.4 0.0
22/10:30am 15.5 10.1 6.5 55 4.4 W 24 32 13 17 1022.2 1022.2 0.0
22/10:00am 15.6 11.9 6.1 53 4.6 WNW 15 26 8 14 1022.0 1022.0 0.0
22/09:30am 15.2 12.5 7.3 59 3.9 WSW 11 19 6 10 1021.5 1021.5 0.0
22/09:00am 14.9 13.3 7.9 63 3.5 SW 6 17 3 9 1021.2 1021.2 7.4
22/08:30am 14.3 9.9 7.4 63 3.4 W 20 32 11 17 1020.8 1020.8 7.4
22/08:00am 14.2 11.1 8.8 70 2.7 SW 15 19 8 10 1020.7 1020.7 7.4
22/07:30am 14.5 10.7 9.1 70 2.8 WSW 19 22 10 12 1020.1 1020.1 7.4
22/07:00am 15.1 11.5 9.7 70 2.8 SW 19 24 10 13 1019.4 1019.4 7.4
22/06:30am 15.4 12.7 10.4 72 2.6 WSW 15 20 8 11 1018.9 1018.9 7.4
22/06:00am 15.9 13.0 10.9 72 2.7 W 17 20 9 11 1018.5 1018.5 7.4
22/05:30am 16.6 14.1 12.4 76 2.3 W 17 24 9 13 1017.9 1017.9 7.4
22/05:00am 17.5 16.8 14.4 82 1.8 WNW 11 17 6 9 1017.6 1017.6 7.4
22/04:30am 17.0 17.7 14.6 86 1.4 W 4 9 2 5 1017.1 1017.1 7.4
22/04:00am 16.5 16.6 14.5 88 1.1 WNW 7 13 4 7 1016.7 1016.7 7.4
22/03:30am 16.9 15.6 14.7 87 1.3 N 15 19 8 10 1016.3 1016.3 7.4
22/03:00am 16.6 14.9 14.8 89 1.0 N 17 19 9 10 1015.9 1015.9 7.4
22/02:30am 16.7 14.7 14.9 89 1.0 N 19 22 10 12 1016.3 1016.3 7.2
22/02:00am 16.7 14.0 14.7 88 1.1 NNE 22 26 12 14 1016.5 1016.5 6.0
22/01:30am 17.1 14.8 14.7 86 1.4 N 20 24 11 13 1017.0 1017.0 4.6
22/01:00am 17.5 17.0 14.8 84 1.6 WNW 11 17 6 9 1016.1 1016.1 0.4
22/12:30am 17.4 17.5 14.5 83 1.7 W 7 11 4 6 1015.6 1015.6 0.0
22/12:00am 18.9 17.1 14.4 75 2.6 N 17 20 9 11 1015.7 1015.7 0.0
 
Date/Time
EST
Temp
°C
App
Temp
°C
Dew
Point
°C
Rel
Hum
%
Delta-T
°C
Wind Press
QNH
hPa
Press
MSL
hPa
Rain since
9am
mm
Dir  Spd
km/h
Gust
km/h
Spd
kts
Gust
kts
21/11:30pm 18.7 16.3 14.4 76 2.5 NNE 20 22 11 12 1015.4 1015.4 0.0
21/11:00pm 19.0 16.2 14.3 74 2.7 N 22 26 12 14 1015.6 1015.6 0.0
21/10:30pm 19.2 16.4 14.2 73 2.9 N 22 26 12 14 1015.6 1015.6 0.0
21/10:00pm 19.3 16.6 14.6 74 2.7 NNE 22 26 12 14 1015.4 1015.4 0.0
21/09:30pm 19.3 16.0 15.0 76 2.5 NNE 26 30 14 16 1015.1 1015.1 0.0
21/09:00pm 18.6 14.6 15.1 80 2.0 N 30 32 16 17 1015.3 1015.3 0.0
21/08:30pm 19.4 15.5 15.5 78 2.3 N 30 35 16 19 1015.0 1015.0 0.0
21/08:00pm 19.4 16.2 15.3 77 2.4 N 26 30 14 16 1015.1 1015.1 0.0
21/07:30pm 19.3 15.4 15.4 78 2.3 N 30 32 16 17 1015.0 1015.0 0.0
21/07:00pm 19.4 15.0 15.7 79 2.2 N 33 37 18 20 1015.1 1015.1 0.0
21/06:30pm 19.0 14.7 15.5 80 2.1 N 32 35 17 19 1015.2 1015.2 0.0
21/06:00pm 19.1 15.6 15.4 79 2.2 N 28 32 15 17 1015.1 1015.1 0.0
21/05:30pm 19.8 15.9 15.4 76 2.6 NNE 30 32 16 17 1015.1 1015.1 0.0
21/05:00pm 20.2 17.0 15.4 74 2.8 NNE 26 30 14 16 1015.3 1015.3 0.0
21/04:30pm 20.6 16.3 15.4 72 3.1 N 32 37 17 20 1015.2 1015.2 0.0
21/04:00pm 21.5 17.6 15.6 69 3.5 NNE 30 35 16 19 1015.0 1015.0 0.0
21/03:30pm 21.6 17.7 15.4 68 3.7 N 30 37 16 20 1015.3 1015.3 0.0
21/03:00pm 21.9 18.8 15.5 67 3.8 N 26 32 14 17 1015.3 1015.3 0.0
21/02:30pm 22.0 18.1 15.6 67 3.8 N 30 37 16 20 1015.4 1015.4 0.0
21/02:00pm 21.6 17.3 15.4 68 3.7 N 32 37 17 20 1015.6 1015.6 0.0
21/01:30pm 21.3 16.0 15.4 69 3.5 N 37 43 20 23 1015.6 1015.6 0.0
21/01:00pm 21.2 16.2 15.1 68 3.6 N 35 43 19 23 1015.8 1015.8 0.0
21/12:30pm 21.0 16.1 15.3 70 3.4 N 35 43 19 23 1016.3 1016.3 0.0
21/12:00pm 20.5 14.4 15.1 71 3.2 N 41 50 22 27 1016.2 1016.2 0.0
21/11:30am 20.0 13.5 15.2 74 2.8 N 43 48 23 26 1016.5 1016.5 0.0
21/11:00am 20.1 14.2 15.7 76 2.6 N 41 44 22 24 1016.9 1016.9 0.0
21/10:30am 18.5 14.0 16.3 87 1.3 N 35 43 19 23 1017.3 1017.3 0.0
21/10:00am 18.4 14.5 16.4 88 1.2 N 32 35 17 19 1017.9 1017.9 0.0
21/09:30am 17.8 14.8 15.8 88 1.2 N 26 30 14 16 1018.3 1018.3 0.0
21/09:00am 17.8 14.1 16.0 89 1.1 N 30 33 16 18 1018.6 1018.6 0.0
21/08:30am 17.8 14.2 16.3 91 0.9 N 30 35 16 19 1018.7 1018.7 0.0
21/08:00am 17.9 14.5 16.8 93 0.7 N 30 37 16 20 1018.6 1018.6 0.0
21/07:30am 17.0 12.9 16.4 96 0.4 N 33 37 18 20 1018.6 1018.6 0.0
21/07:00am 16.5 13.1 15.9 96 0.4 N 28 30 15 16 1018.5 1018.5 0.0
21/06:30am 16.3 13.2 15.7 96 0.4 N 26 30 14 16 1018.6 1018.6 0.0
21/06:00am 16.2 12.7 15.6 96 0.3 N 28 32 15 17 1018.7 1018.7 0.0
21/05:30am 16.3 12.5 15.7 96 0.4 N 30 39 16 21 1018.4 1018.4 0.0
21/05:00am 16.5 12.1 15.7 95 0.5 N 33 41 18 22 1018.4 1018.4 0.0
21/04:30am 16.8 11.3 15.7 93 0.6 N 39 44 21 24 1018.0 1018.0 0.0
21/04:00am 17.1 12.6 15.4 90 1.0 N 33 43 18 23 1018.0 1018.0 0.0
21/03:30am 16.9 13.8 14.4 85 1.4 NNE 24 32 13 17 1018.6 1018.6 0.0
21/03:00am 16.4 13.1 14.9 91 0.9 N 26 30 14 16 1018.9 1018.9 0.0
21/02:30am 16.5 12.2 15.4 93 0.6 N 32 35 17 19 1019.4 1019.4 0.0
21/02:00am 16.4 12.1 15.3 93 0.6 N 32 39 17 21 1019.7 1019.7 0.0
21/01:30am 16.2 11.6 15.1 93 0.6 N 33 35 18 19 1019.8 1019.8 0.0
21/01:00am 16.4 11.5 15.4 94 0.6 N 35 41 19 22 1019.8 1019.8 0.0
21/12:30am 16.2 11.3 15.2 94 0.6 N 35 43 19 23 1020.2 1020.2 0.0
21/12:00am 16.0 11.4 15.2 95 0.5 N 33 35 18 19 1020.4 1020.4 0.0
 
Date/Time
EST
Temp
°C
App
Temp
°C
Dew
Point
°C
Rel
Hum
%
Delta-T
°C
Wind Press
QNH
hPa
Press
MSL
hPa
Rain since
9am
mm
Dir  Spd
km/h
Gust
km/h
Spd
kts
Gust
kts
20/11:30pm 16.1 12.1 15.3 95 0.5 N 30 33 16 18 1020.8 1020.8 0.0
20/11:00pm 16.0 11.7 15.4 96 0.3 N 32 35 17 19 1020.8 1020.8 0.0
20/10:30pm 16.0 11.5 15.4 96 0.3 N 33 37 18 20 1021.0 1021.0 0.0
20/10:00pm 16.1 10.9 15.5 96 0.3 N 37 43 20 23 1021.1 1021.1 0.0
20/09:30pm 16.1 10.8 15.3 95 0.5 N 37 46 20 25 1021.3 1021.3 0.0
20/09:00pm 16.2 10.9 15.4 95 0.5 N 37 43 20 23 1021.5 1021.5 0.0
20/08:30pm 16.2 10.9 15.2 94 0.6 N 37 41 20 22 1021.6 1021.6 0.0
20/08:00pm 16.4 10.7 15.3 93 0.6 N 39 46 21 25 1021.4 1021.4 0.0
20/07:30pm 16.6 10.1 15.1 91 0.9 N 43 50 23 27 1021.4 1021.4 0.0
20/07:00pm 16.8 10.9 14.8 88 1.1 N 39 48 21 26 1021.6 1021.6 0.0
20/06:30pm 17.0 11.1 14.6 86 1.4 N 39 48 21 26 1021.5 1021.5 0.0
20/06:00pm 17.2 11.7 14.7 85 1.4 N 37 44 20 24 1021.5 1021.5 0.0
20/05:30pm 17.3 12.5 14.6 84 1.6 NNE 33 41 18 22 1021.4 1021.4 0.0
20/05:00pm 17.5 12.3 14.4 82 1.8 N 35 43 19 23 1021.3 1021.3 0.0
20/04:30pm 17.9 13.2 14.2 79 2.1 N 32 39 17 21 1021.3 1021.3 0.0
20/04:00pm 18.4 13.0 13.9 75 2.6 NNE 35 41 19 22 1021.1 1021.1 0.0
20/03:30pm 18.8 13.8 13.9 73 2.8 NNE 33 41 18 22 1021.3 1021.3 0.0
20/03:00pm 19.1 13.2 13.7 71 3.1 NNE 37 46 20 25 1021.5 1021.5 0.0
20/02:30pm 19.2 13.3 13.6 70 3.2 NNE 37 44 20 24 1021.7 1021.7 0.0
20/02:00pm 19.3 13.1 13.7 70 3.2 NNE 39 48 21 26 1021.9 1021.9 0.0
20/01:30pm 19.2 13.2 13.4 69 3.3 NNE 37 50 20 27 1022.3 1022.3 0.0
20/01:00pm 18.7 11.9 13.1 70 3.2 N 41 50 22 27 1022.6 1022.6 0.0
20/12:30pm 18.6 11.4 13.2 71 3.1 NNE 43 50 23 27 1023.2 1023.2 0.0

Other formats

Comma delimited format used in spreadsheet applications
http://www.bom.gov.au/fwo/IDT60801/IDT60801.95988.axf

JavaScript Object Notation format (JSON) in row-major order
http://www.bom.gov.au/fwo/IDT60801/IDT60801.95988.json

Data quality

Most of these data are generated automatically and are frequently updated. Quality checks on data are not normally performed. It is possible for incorrect values to appear. Refer to information at About Latest Weather Observations and please check the disclaimer before using these data.